Time;durP1;ratioP1;P1;durP2;ratioP2;P2;SDS_P1;SDS_P2;PMS_P1;PMS_P2;Temp;Humidity;BMP_temperature;BMP_pressure;BME280_temperature;BME280_humidity;BME280_pressure;Samples;Min_cycle;Max_cycle;Signal;HPM_P1;HPM_P2
2023/09/10 00:01:43;;;;;;;11.63;10.48;;;21.90;99.90;;;;;;5035941;28;20037;-86
2023/09/10 00:04:09;;;;;;;12.18;11.07;;;21.80;99.90;;;;;;5044214;28;20445;-86
2023/09/10 00:06:36;;;;;;;12.10;10.90;;;21.80;99.90;;;;;;5039233;28;20078;-86
2023/09/10 00:09:03;;;;;;;11.38;10.38;;;21.80;99.90;;;;;;5055372;28;20115;-86
2023/09/10 00:11:29;;;;;;;11.25;10.15;;;21.80;99.90;;;;;;5029416;28;20423;-86
2023/09/10 00:13:54;;;;;;;11.73;10.63;;;21.80;99.90;;;;;;5038666;28;20016;-86
2023/09/10 00:16:20;;;;;;;11.85;10.65;;;21.80;99.90;;;;;;5039295;28;20020;-85
2023/09/10 00:18:46;;;;;;;11.00;9.95;;;21.80;99.90;;;;;;5055534;28;20448;-85
2023/09/10 00:21:13;;;;;;;11.13;10.13;;;21.80;99.90;;;;;;5038979;28;20036;-85
2023/09/10 00:23:38;;;;;;;11.40;10.32;;;21.80;99.90;;;;;;5039140;28;20020;-85
2023/09/10 00:26:04;;;;;;;11.73;10.73;;;21.80;99.90;;;;;;5054862;28;20043;-86
2023/09/10 00:28:30;;;;;;;12.18;10.98;;;21.70;99.90;;;;;;5042186;28;20017;-86
2023/09/10 00:30:56;;;;;;;12.63;11.30;;;21.70;99.90;;;;;;5035756;28;20097;-85
2023/09/10 00:33:21;;;;;;;12.00;10.90;;;21.70;99.90;;;;;;5053474;28;20032;-85
2023/09/10 00:35:47;;;;;;;11.05;9.95;;;21.70;99.90;;;;;;5053408;28;20025;-86
2023/09/10 00:38:12;;;;;;;12.05;10.85;;;21.70;99.90;;;;;;5038819;28;20021;-85
2023/09/10 00:40:38;;;;;;;11.98;10.77;;;21.70;99.90;;;;;;5027233;28;20037;-85
2023/09/10 00:43:04;;;;;;;12.70;11.50;;;21.70;99.90;;;;;;5023367;28;20040;-85
2023/09/10 00:45:30;;;;;;;14.00;12.50;;;21.70;99.90;;;;;;5054999;28;20029;-86
2023/09/10 00:47:56;;;;;;;13.50;12.13;;;21.60;99.90;;;;;;5073087;28;20020;-85
2023/09/10 00:50:23;;;;;;;14.10;12.80;;;21.70;99.90;;;;;;5022339;28;20431;-85
2023/09/10 00:52:55;;;;;;;13.95;12.55;;;21.60;99.90;;;;;;5038544;28;20025;-86
2023/09/10 00:55:22;;;;;;;14.63;13.13;;;21.60;99.90;;;;;;5055423;28;20111;-86
2023/09/10 00:57:48;;;;;;;15.15;13.65;;;21.70;99.90;;;;;;5055272;28;20028;-86
2023/09/10 01:00:14;;;;;;;15.05;13.63;;;21.60;99.90;;;;;;5038885;28;20057;-86
2023/09/10 01:02:44;;;;;;;15.82;14.23;;;21.60;99.90;;;;;;5061948;28;20024;-86
2023/09/10 01:05:11;;;;;;;15.68;14.18;;;21.60;99.90;;;;;;5040138;28;20023;-86
2023/09/10 01:07:40;;;;;;;14.93;13.52;;;21.60;99.90;;;;;;5055909;28;20029;-86
2023/09/10 01:10:07;;;;;;;15.27;13.80;;;21.60;99.90;;;;;;5037010;28;20027;-86
2023/09/10 01:12:45;;;;;;;15.43;13.95;;;21.60;99.90;;;;;;5053615;28;20013;-86
2023/09/10 01:15:16;;;;;;;15.00;13.60;;;21.60;99.90;;;;;;5043264;28;20016;-86
2023/09/10 01:17:54;;;;;;;14.07;12.80;;;21.60;99.90;;;;;;5074146;28;20056;-86
2023/09/10 01:20:35;;;;;;;15.00;13.55;;;21.60;99.90;;;;;;5056647;28;20111;-86
2023/09/10 01:23:19;;;;;;;14.50;13.02;;;21.60;99.90;;;;;;5058145;28;20012;-86
2023/09/10 01:25:46;;;;;;;15.02;13.52;;;21.60;99.90;;;;;;5079983;28;20021;-85
2023/09/10 01:28:12;;;;;;;15.27;13.85;;;21.60;99.90;;;;;;5087130;28;20013;-84
2023/09/10 01:30:37;;;;;;;14.38;13.07;;;21.60;99.90;;;;;;5077020;28;20013;-85
2023/09/10 01:33:33;;;;;;;17.02;14.05;;;21.60;99.90;;;;;;5056762;28;20017;-82
2023/09/10 01:36:28;;;;;;;14.50;13.20;;;21.60;99.90;;;;;;5054113;28;20028;-86
2023/09/10 01:39:25;;;;;;;14.63;13.10;;;21.60;99.90;;;;;;5055513;28;20050;-86
2023/09/10 01:41:51;;;;;;;15.60;14.10;;;21.60;99.90;;;;;;5007576;28;20037;-86
2023/09/10 01:44:18;;;;;;;15.15;13.70;;;21.60;99.90;;;;;;5072361;28;20075;-86
2023/09/10 01:46:45;;;;;;;16.15;14.55;;;21.60;99.90;;;;;;5055016;28;20020;-86
2023/09/10 01:49:11;;;;;;;15.45;13.95;;;21.60;99.90;;;;;;5072386;28;20024;-86
2023/09/10 01:51:37;;;;;;;15.95;14.32;;;21.60;99.90;;;;;;5038220;28;20364;-86
2023/09/10 01:54:03;;;;;;;15.85;14.35;;;21.60;99.90;;;;;;5070657;28;20024;-86
2023/09/10 01:56:28;;;;;;;16.13;14.45;;;21.60;99.90;;;;;;5037750;28;20029;-86
2023/09/10 01:58:54;;;;;;;16.35;14.75;;;21.60;99.90;;;;;;5038445;28;20021;-86
2023/09/10 02:01:20;;;;;;;15.52;14.13;;;21.60;99.90;;;;;;5027432;28;20075;-87
2023/09/10 02:03:45;;;;;;;15.77;14.30;;;21.60;99.90;;;;;;5076190;28;20367;-86
2023/09/10 02:06:11;;;;;;;16.27;14.77;;;21.60;99.90;;;;;;5038181;28;20045;-85
2023/09/10 02:08:36;;;;;;;16.38;14.82;;;21.60;99.90;;;;;;5056053;28;20017;-85
2023/09/10 02:11:05;;;;;;;16.45;14.75;;;21.60;99.90;;;;;;5055699;28;20029;-85
2023/09/10 02:13:31;;;;;;;16.25;14.65;;;21.60;99.90;;;;;;5038016;28;20075;-86
2023/09/10 02:15:57;;;;;;;16.00;14.60;;;21.60;99.90;;;;;;5055876;28;20021;-86
2023/09/10 02:18:22;;;;;;;16.67;15.18;;;21.60;99.90;;;;;;5038458;28;20093;-85
2023/09/10 02:20:48;;;;;;;17.20;15.55;;;21.60;99.90;;;;;;5041362;28;20039;-86
2023/09/10 02:23:14;;;;;;;17.00;15.40;;;21.60;99.90;;;;;;5057280;28;20020;-85
2023/09/10 02:25:40;;;;;;;16.48;14.98;;;21.60;99.90;;;;;;5042706;28;20023;-86
2023/09/10 02:28:06;;;;;;;16.13;14.43;;;21.60;99.90;;;;;;5062543;28;20448;-86
2023/09/10 02:30:31;;;;;;;17.15;15.52;;;21.60;99.90;;;;;;5040031;28;20484;-85
2023/09/10 02:32:57;;;;;;;16.27;14.73;;;21.60;99.90;;;;;;5071447;28;20028;-86
2023/09/10 02:35:24;;;;;;;16.38;14.77;;;21.60;99.90;;;;;;5021009;28;20522;-86
2023/09/10 02:37:49;;;;;;;16.17;14.65;;;21.60;99.90;;;;;;5055527;28;20021;-85
2023/09/10 02:40:15;;;;;;;16.60;15.10;;;21.60;99.90;;;;;;5037520;28;20067;-86
2023/09/10 02:42:41;;;;;;;16.75;15.15;;;21.60;99.90;;;;;;5062133;28;20049;-86
2023/09/10 02:45:07;;;;;;;17.00;15.40;;;21.50;99.90;;;;;;5021120;28;20457;-86
2023/09/10 02:47:32;;;;;;;16.58;14.98;;;21.50;99.90;;;;;;5041506;28;20529;-85
2023/09/10 02:49:58;;;;;;;16.55;14.95;;;21.50;99.90;;;;;;5057546;28;20036;-85
2023/09/10 02:52:30;;;;;;;15.90;14.45;;;21.50;99.90;;;;;;5057201;28;20033;-86
2023/09/10 02:54:56;;;;;;;16.02;14.43;;;21.50;99.90;;;;;;5038121;28;20029;-86
2023/09/10 02:57:21;;;;;;;16.95;15.20;;;21.50;99.90;;;;;;5037256;28;20028;-86
2023/09/10 02:59:47;;;;;;;16.63;15.07;;;21.50;99.90;;;;;;5037262;28;20048;-85
2023/09/10 03:02:13;;;;;;;17.30;15.57;;;21.50;99.90;;;;;;5036466;28;20114;-86
2023/09/10 03:04:38;;;;;;;17.13;15.40;;;21.50;99.90;;;;;;5037648;28;20070;-85
2023/09/10 03:07:04;;;;;;;17.60;15.95;;;21.50;99.90;;;;;;5036861;28;20474;-86
2023/09/10 03:09:30;;;;;;;17.20;15.57;;;21.50;99.90;;;;;;5037316;28;20021;-86
2023/09/10 03:12:22;;;;;;;17.05;15.45;;;21.50;99.90;;;;;;5010104;28;20020;-86
2023/09/10 03:14:49;;;;;;;16.77;15.27;;;21.50;99.90;;;;;;5055547;28;20021;-85
2023/09/10 03:17:14;;;;;;;16.75;15.13;;;21.40;99.90;;;;;;5063872;28;20029;-86
2023/09/10 03:19:40;;;;;;;16.85;15.23;;;21.40;99.90;;;;;;5034735;28;20032;-85
2023/09/10 03:22:06;;;;;;;17.38;15.68;;;21.40;99.90;;;;;;5038406;28;20037;-86
2023/09/10 03:24:36;;;;;;;16.75;15.18;;;21.40;99.90;;;;;;5045199;28;20013;-85
2023/09/10 03:27:02;;;;;;;16.70;15.10;;;21.40;99.90;;;;;;5077373;28;20032;-85
2023/09/10 03:29:28;;;;;;;18.65;16.85;;;21.40;99.90;;;;;;5039349;28;20076;-83
2023/09/10 03:31:53;;;;;;;18.48;16.73;;;21.40;99.90;;;;;;5064889;28;20025;-83
2023/09/10 03:34:19;;;;;;;17.75;15.90;;;21.40;99.90;;;;;;5062821;28;20057;-83
2023/09/10 03:36:45;;;;;;;17.20;15.55;;;21.40;99.90;;;;;;5041874;28;20035;-85
2023/09/10 03:39:11;;;;;;;19.00;17.20;;;21.40;99.90;;;;;;5054328;28;20179;-85
2023/09/10 03:41:36;;;;;;;18.77;16.98;;;21.40;99.90;;;;;;5032584;28;20037;-85
2023/09/10 03:44:02;;;;;;;18.50;16.70;;;21.40;99.90;;;;;;5036490;28;20076;-85
2023/09/10 03:46:28;;;;;;;18.13;16.42;;;21.40;99.90;;;;;;5023090;28;20442;-85
2023/09/10 03:48:53;;;;;;;19.45;17.55;;;21.40;99.90;;;;;;5039898;28;20031;-85
2023/09/10 03:51:19;;;;;;;19.67;17.63;;;21.40;99.90;;;;;;5022921;28;20052;-86
2023/09/10 03:53:45;;;;;;;19.42;17.52;;;21.40;99.90;;;;;;5056217;28;20107;-86
2023/09/10 03:56:10;;;;;;;19.55;17.65;;;21.30;99.90;;;;;;5053239;28;20078;-86
2023/09/10 03:58:36;;;;;;;20.13;18.05;;;21.30;99.90;;;;;;5039533;28;20383;-85
2023/09/10 04:01:02;;;;;;;18.98;17.05;;;21.30;99.90;;;;;;5039643;28;20028;-85
2023/09/10 04:03:28;;;;;;;19.67;17.88;;;21.30;99.90;;;;;;5039126;28;20016;-86
2023/09/10 04:05:53;;;;;;;20.60;18.52;;;21.30;99.90;;;;;;5055785;28;20017;-86
2023/09/10 04:08:19;;;;;;;20.92;18.77;;;21.30;99.90;;;;;;5035939;28;20024;-86
2023/09/10 04:10:45;;;;;;;21.23;19.20;;;21.30;99.90;;;;;;5053870;28;20025;-85
2023/09/10 04:13:11;;;;;;;19.83;17.77;;;21.30;99.90;;;;;;5019444;28;20472;-86
2023/09/10 04:15:36;;;;;;;21.00;18.90;;;21.30;99.90;;;;;;5029676;28;20028;-86
2023/09/10 04:18:04;;;;;;;20.45;18.42;;;21.30;99.90;;;;;;5041734;28;20471;-85
2023/09/10 04:20:30;;;;;;;21.40;19.48;;;21.30;99.90;;;;;;5020453;28;20055;-86
2023/09/10 04:22:55;;;;;;;21.35;19.25;;;21.30;99.90;;;;;;5035732;28;20013;-85
2023/09/10 04:25:22;;;;;;;21.52;19.33;;;21.30;99.90;;;;;;5035828;28;20048;-86
2023/09/10 04:27:48;;;;;;;22.27;19.88;;;21.30;99.90;;;;;;5035265;28;20114;-86
2023/09/10 04:30:14;;;;;;;21.45;19.35;;;21.30;99.90;;;;;;5059973;28;20028;-85
2023/09/10 04:32:39;;;;;;;21.67;19.60;;;21.30;99.90;;;;;;5035628;28;20449;-86
2023/09/10 04:35:05;;;;;;;21.67;19.67;;;21.20;99.90;;;;;;5035636;28;20052;-86
2023/09/10 04:37:32;;;;;;;22.25;20.25;;;21.20;99.90;;;;;;5018880;28;20021;-86
2023/09/10 04:39:57;;;;;;;21.88;19.77;;;21.20;99.90;;;;;;5053540;28;20457;-86
2023/09/10 04:42:23;;;;;;;22.17;20.08;;;21.20;99.90;;;;;;5036172;28;20032;-86
2023/09/10 04:44:49;;;;;;;21.80;19.70;;;21.20;99.90;;;;;;5038895;28;20461;-86
2023/09/10 04:47:15;;;;;;;21.48;19.45;;;21.20;99.90;;;;;;5038726;28;20074;-86
2023/09/10 04:49:41;;;;;;;21.15;19.05;;;21.20;99.90;;;;;;5049570;28;20078;-86
2023/09/10 04:52:06;;;;;;;22.50;20.35;;;21.20;99.90;;;;;;5053265;28;20372;-86
2023/09/10 04:54:32;;;;;;;21.08;19.15;;;21.20;99.90;;;;;;5037917;28;20526;-86
2023/09/10 04:56:58;;;;;;;22.00;19.95;;;21.20;99.90;;;;;;5039060;28;20146;-86
2023/09/10 04:59:23;;;;;;;22.58;20.27;;;21.20;99.90;;;;;;5038785;28;20021;-86
2023/09/10 05:01:52;;;;;;;22.83;20.58;;;21.20;99.90;;;;;;5038992;28;20031;-86
2023/09/10 05:04:18;;;;;;;23.05;20.75;;;21.20;99.90;;;;;;5055499;28;20029;-86
2023/09/10 05:06:43;;;;;;;22.48;20.38;;;21.20;99.90;;;;;;5035740;28;20051;-86
2023/09/10 05:09:09;;;;;;;22.48;20.17;;;21.20;99.90;;;;;;5044405;28;20124;-86
2023/09/10 05:11:34;;;;;;;21.50;19.52;;;21.10;99.90;;;;;;5053548;28;20179;-86
2023/09/10 05:14:00;;;;;;;22.23;20.13;;;21.20;99.90;;;;;;5027179;28;20083;-87
2023/09/10 05:16:26;;;;;;;21.70;19.40;;;21.10;99.90;;;;;;5035841;28;20036;-86
2023/09/10 05:18:52;;;;;;;21.08;19.13;;;21.10;99.90;;;;;;5054779;28;20029;-86
2023/09/10 05:21:18;;;;;;;21.70;19.67;;;21.10;99.90;;;;;;5056278;28;20033;-86
2023/09/10 05:23:44;;;;;;;22.50;20.20;;;21.10;99.90;;;;;;5071361;28;20088;-85
2023/09/10 05:26:09;;;;;;;21.38;19.33;;;21.10;99.90;;;;;;5063438;28;20005;-86
2023/09/10 05:28:35;;;;;;;22.13;19.92;;;21.10;99.90;;;;;;5059100;28;20050;-84
2023/09/10 05:31:04;;;;;;;21.40;19.42;;;21.10;99.90;;;;;;5064075;28;20076;-86
2023/09/10 05:33:31;;;;;;;22.05;19.95;;;21.10;99.90;;;;;;5047272;28;20044;-85
2023/09/10 05:35:58;;;;;;;23.00;20.83;;;21.10;99.90;;;;;;5034518;28;20476;-87
2023/09/10 05:38:25;;;;;;;22.30;20.20;;;21.10;99.90;;;;;;5032321;28;20021;-87
2023/09/10 05:40:51;;;;;;;22.52;20.35;;;21.10;99.90;;;;;;5059128;28;20063;-86
2023/09/10 05:43:17;;;;;;;22.35;20.30;;;21.20;99.90;;;;;;5058836;28;20056;-86
2023/09/10 05:45:45;;;;;;;23.13;20.83;;;21.10;99.90;;;;;;5050563;28;20028;-86
2023/09/10 05:48:11;;;;;;;22.88;20.77;;;21.10;99.90;;;;;;5059007;28;20101;-86
2023/09/10 05:50:39;;;;;;;22.38;20.23;;;21.10;99.90;;;;;;5026111;28;20057;-86
2023/09/10 05:53:04;;;;;;;21.88;19.77;;;21.20;99.90;;;;;;5038524;28;20024;-86
2023/09/10 05:55:30;;;;;;;23.45;21.10;;;21.20;99.90;;;;;;5021733;28;20503;-86
2023/09/10 05:57:56;;;;;;;21.88;19.77;;;21.20;99.90;;;;;;5038661;28;20021;-86
2023/09/10 06:00:22;;;;;;;22.85;20.55;;;21.20;99.90;;;;;;5063752;28;20032;-86
2023/09/10 06:02:51;;;;;;;21.40;19.20;;;21.20;99.90;;;;;;5076374;28;20030;-86
2023/09/10 06:05:17;;;;;;;21.02;19.02;;;21.30;99.90;;;;;;5058336;28;20467;-86
2023/09/10 06:07:43;;;;;;;21.67;19.58;;;21.30;99.90;;;;;;5041119;28;20013;-87
2023/09/10 06:10:09;;;;;;;23.27;20.90;;;21.30;99.90;;;;;;5057942;28;20056;-86
2023/09/10 06:12:38;;;;;;;21.60;19.65;;;21.30;99.90;;;;;;5055746;28;20503;-86
2023/09/10 06:15:06;;;;;;;22.10;20.08;;;21.40;99.90;;;;;;5056017;28;20021;-87
2023/09/10 06:17:32;;;;;;;20.15;18.25;;;21.40;99.90;;;;;;5058159;28;20017;-86
2023/09/10 06:19:58;;;;;;;22.75;20.55;;;21.40;99.90;;;;;;5032110;28;20365;-85
2023/09/10 06:22:23;;;;;;;21.63;19.52;;;21.50;99.90;;;;;;5050708;28;20029;-86
2023/09/10 06:24:49;;;;;;;22.77;20.63;;;21.40;99.90;;;;;;5037988;28;20021;-86
2023/09/10 06:27:15;;;;;;;23.35;20.88;;;21.40;99.90;;;;;;5028315;28;20059;-86
2023/09/10 06:29:40;;;;;;;21.67;19.58;;;21.50;99.90;;;;;;5054706;28;20029;-85
2023/09/10 06:32:06;;;;;;;22.70;20.65;;;21.50;99.90;;;;;;5037712;28;20472;-86
2023/09/10 06:34:32;;;;;;;21.52;19.52;;;21.50;99.90;;;;;;5057464;28;20028;-86
2023/09/10 06:36:59;;;;;;;23.25;21.05;;;21.60;99.90;;;;;;5027910;28;20334;-86
2023/09/10 06:39:25;;;;;;;22.77;20.60;;;21.60;99.90;;;;;;5049489;28;20463;-85
2023/09/10 06:41:54;;;;;;;21.42;19.30;;;21.60;99.90;;;;;;5074507;28;20047;-86
2023/09/10 06:44:19;;;;;;;20.80;18.80;;;21.70;99.90;;;;;;5036955;28;20037;-87
2023/09/10 06:46:45;;;;;;;21.08;19.05;;;21.70;99.90;;;;;;5017775;28;20119;-86
2023/09/10 06:49:11;;;;;;;21.98;19.77;;;21.80;99.90;;;;;;5057233;28;20388;-86
2023/09/10 06:51:36;;;;;;;22.38;20.27;;;21.80;99.90;;;;;;5074978;28;20483;-86
2023/09/10 06:54:02;;;;;;;20.55;18.55;;;21.80;99.90;;;;;;5037759;28;20070;-86
2023/09/10 06:56:30;;;;;;;20.95;18.85;;;21.90;99.90;;;;;;5021266;28;20025;-85
2023/09/10 06:58:55;;;;;;;21.65;19.65;;;21.90;99.90;;;;;;5040270;28;20016;-86
2023/09/10 07:01:21;;;;;;;20.02;18.23;;;22.00;99.90;;;;;;5057118;28;20081;-86
2023/09/10 07:03:53;;;;;;;22.65;20.55;;;22.00;99.90;;;;;;5040626;28;20146;-86
2023/09/10 07:06:19;;;;;;;24.63;21.88;;;22.10;99.90;;;;;;5042574;28;20111;-87
2023/09/10 07:08:44;;;;;;;20.40;18.40;;;22.10;99.90;;;;;;5037309;28;20512;-86
2023/09/10 07:11:10;;;;;;;20.23;18.13;;;22.20;99.90;;;;;;5056877;28;20479;-86
2023/09/10 07:13:39;;;;;;;18.30;16.63;;;22.20;99.90;;;;;;5057230;28;20392;-85
2023/09/10 07:16:05;;;;;;;20.55;18.48;;;22.20;99.90;;;;;;5058158;28;20025;-84
2023/09/10 07:18:33;;;;;;;21.20;19.20;;;22.30;99.90;;;;;;5059209;28;20025;-84
2023/09/10 07:21:03;;;;;;;22.13;19.98;;;22.30;99.90;;;;;;5053309;28;20096;-85
2023/09/10 07:23:29;;;;;;;20.33;18.45;;;22.30;99.90;;;;;;5066397;28;20049;-83
2023/09/10 07:25:55;;;;;;;20.77;18.88;;;22.40;99.90;;;;;;5089937;28;20043;-85
2023/09/10 07:28:21;;;;;;;22.70;20.58;;;22.50;99.90;;;;;;5081126;28;20030;-85
2023/09/10 07:30:47;;;;;;;24.85;22.52;;;22.50;99.90;;;;;;5081932;28;20017;-84
2023/09/10 07:33:12;;;;;;;21.95;19.65;;;22.60;99.90;;;;;;5075223;28;20023;-85
2023/09/10 07:35:38;;;;;;;24.08;21.85;;;22.60;99.90;;;;;;5052646;28;20346;-84
2023/09/10 07:38:04;;;;;;;21.95;19.75;;;22.70;99.90;;;;;;5020781;28;20031;-84
2023/09/10 07:40:29;;;;;;;23.25;20.95;;;22.70;99.90;;;;;;5020397;28;20033;-83
2023/09/10 07:42:58;;;;;;;22.38;20.27;;;22.80;99.90;;;;;;5036984;28;20045;-84
2023/09/10 07:45:24;;;;;;;22.02;19.83;;;22.90;99.90;;;;;;5073988;28;20521;-84
2023/09/10 07:47:50;;;;;;;20.80;18.90;;;22.90;99.90;;;;;;5039635;28;20016;-84
2023/09/10 07:50:16;;;;;;;24.08;21.70;;;23.00;99.90;;;;;;5073707;28;20043;-83
2023/09/10 07:52:42;;;;;;;23.58;21.33;;;23.00;99.90;;;;;;5025060;28;20114;-83
2023/09/10 07:55:07;;;;;;;23.88;21.48;;;23.10;99.90;;;;;;5038769;28;20052;-85
2023/09/10 07:57:33;;;;;;;21.15;18.70;;;23.20;99.90;;;;;;5039514;28;20023;-84
2023/09/10 07:59:59;;;;;;;21.75;19.58;;;23.20;99.90;;;;;;5056127;28;20028;-84
2023/09/10 08:02:26;;;;;;;21.60;19.50;;;23.30;99.90;;;;;;5055844;28;20041;-84
2023/09/10 08:04:52;;;;;;;21.50;19.40;;;23.30;99.90;;;;;;5056153;28;20071;-84
2023/09/10 08:07:18;;;;;;;21.80;19.70;;;23.40;99.90;;;;;;5039295;28;20480;-84
2023/09/10 08:09:44;;;;;;;21.75;19.67;;;23.40;99.90;;;;;;5035766;28;20111;-84
2023/09/10 08:12:10;;;;;;;18.98;17.17;;;23.50;99.90;;;;;;5041026;28;20048;-84
2023/09/10 08:14:37;;;;;;;21.60;19.50;;;23.50;99.90;;;;;;5023569;28;20492;-84
2023/09/10 08:17:03;;;;;;;20.50;18.60;;;23.60;99.90;;;;;;5035767;28;20024;-83
2023/09/10 08:19:29;;;;;;;20.27;18.27;;;23.60;99.90;;;;;;5029529;28;20493;-84
2023/09/10 08:21:54;;;;;;;17.92;16.23;;;23.70;99.90;;;;;;5038785;28;20043;-84
2023/09/10 08:24:21;;;;;;;21.25;19.25;;;23.80;99.90;;;;;;5038740;28;20027;-84
2023/09/10 08:26:47;;;;;;;21.23;19.20;;;23.80;99.90;;;;;;5069879;28;20013;-85
2023/09/10 08:29:12;;;;;;;20.95;18.98;;;23.90;99.90;;;;;;5036163;28;20016;-85
2023/09/10 08:31:38;;;;;;;21.60;19.48;;;23.90;99.90;;;;;;5055706;28;20032;-84
2023/09/10 08:34:04;;;;;;;21.63;19.52;;;24.00;99.90;;;;;;5038585;28;20028;-84
2023/09/10 08:36:29;;;;;;;22.08;19.75;;;24.10;99.90;;;;;;5039880;28;20092;-84
2023/09/10 08:38:55;;;;;;;21.48;19.38;;;24.10;99.90;;;;;;5018930;28;20468;-84
2023/09/10 08:41:27;;;;;;;21.92;19.63;;;24.20;99.90;;;;;;5034843;28;20112;-84
2023/09/10 08:43:57;;;;;;;21.88;19.65;;;24.40;99.90;;;;;;5034816;28;20086;-84
2023/09/10 08:46:29;;;;;;;;;;;24.40;99.90;;;;;;5036888;28;20465;-85
2023/09/10 08:48:56;;;;;;;17.50;15.75;;;24.40;99.90;;;;;;5036431;28;19905;-85
2023/09/10 08:51:22;;;;;;;20.63;18.52;;;24.50;99.90;;;;;;5046854;28;20149;-84
2023/09/10 08:53:48;;;;;;;18.98;17.15;;;24.50;99.90;;;;;;5045020;28;20025;-85
2023/09/10 08:56:14;;;;;;;21.52;19.38;;;24.60;99.90;;;;;;5053168;28;20536;-84
2023/09/10 08:58:42;;;;;;;21.77;19.67;;;24.70;99.90;;;;;;5035449;28;20051;-85
2023/09/10 09:01:13;;;;;;;21.35;19.23;;;24.70;99.90;;;;;;5029482;28;20102;-85
2023/09/10 09:03:38;;;;;;;22.25;20.05;;;24.80;99.90;;;;;;5055186;28;20074;-84
2023/09/10 09:06:05;;;;;;;20.50;18.45;;;24.90;99.90;;;;;;5029166;28;20347;-84
2023/09/10 09:08:33;;;;;;;20.35;17.85;;;24.90;99.90;;;;;;5039466;28;20017;-84
2023/09/10 09:11:03;;;;;;;21.17;19.17;;;25.00;99.90;;;;;;5040450;28;20086;-85
2023/09/10 09:13:35;;;;;;;18.67;16.92;;;25.10;99.90;;;;;;5040446;28;20024;-85
2023/09/10 09:16:03;;;;;;;19.50;17.60;;;25.10;99.90;;;;;;5041640;28;20024;-85
2023/09/10 09:18:29;;;;;;;20.50;18.42;;;25.20;99.90;;;;;;5059498;28;20533;-84
2023/09/10 09:20:59;;;;;;;18.98;17.08;;;25.30;99.90;;;;;;5059249;28;20470;-84
2023/09/10 09:23:31;;;;;;;22.25;20.08;;;25.30;99.90;;;;;;5077055;28;20054;-84
2023/09/10 09:25:57;;;;;;;20.02;17.35;;;25.40;99.90;;;;;;5057212;28;20025;-85
2023/09/10 09:28:25;;;;;;;18.75;16.95;;;25.50;99.90;;;;;;5069933;28;20017;-85
2023/09/10 09:30:52;;;;;;;18.58;16.65;;;25.50;99.90;;;;;;5052996;28;20032;-85
2023/09/10 09:33:17;;;;;;;20.55;18.38;;;25.60;99.90;;;;;;5065103;28;20088;-85
2023/09/10 09:35:45;;;;;;;19.65;17.75;;;25.70;99.90;;;;;;5066291;28;20016;-83
2023/09/10 09:38:13;;;;;;;18.27;16.00;;;25.70;99.90;;;;;;5099979;28;20036;-84
2023/09/10 09:40:39;;;;;;;16.52;14.82;;;25.80;99.90;;;;;;5072843;28;20044;-83
2023/09/10 09:43:10;;;;;;;15.15;13.38;;;25.90;99.90;;;;;;5041688;28;20041;-84
2023/09/10 09:45:36;;;;;;;15.52;13.95;;;25.90;99.90;;;;;;5039682;28;20021;-84
2023/09/10 09:48:05;;;;;;;16.67;15.00;;;26.00;99.90;;;;;;5039145;28;20032;-84
2023/09/10 09:50:31;;;;;;;14.95;13.40;;;26.00;99.90;;;;;;5038653;28;20021;-83
2023/09/10 09:52:57;;;;;;;14.18;12.68;;;26.10;99.90;;;;;;5043388;28;20017;-84
2023/09/10 09:55:23;;;;;;;16.10;13.70;;;26.10;99.90;;;;;;5058715;28;20501;-84
2023/09/10 09:57:50;;;;;;;17.38;14.85;;;26.20;99.90;;;;;;5041879;28;20056;-84
2023/09/10 10:00:16;;;;;;;14.63;12.75;;;26.20;99.90;;;;;;5058252;28;20020;-84
2023/09/10 10:02:42;;;;;;;18.90;13.30;;;26.30;99.90;;;;;;5029574;28;20066;-84
2023/09/10 10:05:08;;;;;;;16.35;14.75;;;26.30;99.90;;;;;;5035769;28;20529;-84
2023/09/10 10:07:36;;;;;;;18.33;14.48;;;26.40;99.90;;;;;;5056186;28;20021;-84
2023/09/10 10:10:05;;;;;;;14.02;12.60;;;26.50;99.90;;;;;;5047612;28;20452;-84
2023/09/10 10:12:31;;;;;;;13.02;11.68;;;26.50;99.90;;;;;;5038960;28;20025;-84
2023/09/10 10:14:58;;;;;;;15.48;11.73;;;26.60;99.90;;;;;;5055814;28;20021;-84
2023/09/10 10:17:29;;;;;;;12.68;11.38;;;26.60;99.80;;;;;;5057119;28;20013;-85
2023/09/10 10:19:55;;;;;;;;;;;26.60;99.80;;;;;;5043674;28;20044;-85
2023/09/10 10:22:24;;;;;;;13.55;12.07;;;26.70;99.80;;;;;;5069226;28;19912;-85
2023/09/10 10:24:51;;;;;;;13.40;10.88;;;26.70;99.70;;;;;;5037835;28;20094;-85
2023/09/10 10:27:18;;;;;;;12.77;10.93;;;26.70;99.60;;;;;;5029604;28;20028;-86
2023/09/10 10:29:44;;;;;;;13.93;11.00;;;26.80;99.60;;;;;;5041356;28;20460;-85
2023/09/10 10:32:28;;;;;;;15.13;10.75;;;26.80;99.50;;;;;;5039221;28;20017;-85
2023/09/10 10:35:05;;;;;;;13.38;10.70;;;26.90;99.40;;;;;;5056379;28;20013;-85
2023/09/10 10:38:03;;;;;;;10.98;9.73;;;26.90;99.40;;;;;;5039573;28;20045;-85
2023/09/10 10:40:31;;;;;;;11.77;9.88;;;27.00;99.40;;;;;;5042230;28;20033;-85
2023/09/10 10:43:14;;;;;;;8.75;7.60;;;27.00;99.30;;;;;;5048600;28;20040;-85
2023/09/10 10:45:40;;;;;;;10.07;8.45;;;27.10;99.20;;;;;;5055082;28;20411;-85
2023/09/10 10:48:17;;;;;;;11.18;8.77;;;27.10;99.20;;;;;;5037803;28;20111;-85
2023/09/10 10:50:45;;;;;;;10.35;8.10;;;27.20;99.10;;;;;;5038886;28;20032;-85
2023/09/10 10:53:18;;;;;;;11.90;8.30;;;27.20;99.10;;;;;;5057095;28;20408;-85
2023/09/10 10:55:45;;;;;;;10.95;7.97;;;27.30;98.80;;;;;;5057352;28;20071;-85
2023/09/10 10:58:11;;;;;;;9.80;7.70;;;27.30;98.50;;;;;;5074522;28;20025;-85
2023/09/10 11:00:37;;;;;;;9.82;7.30;;;27.30;98.40;;;;;;5040579;28;20016;-85
2023/09/10 11:03:10;;;;;;;11.00;7.00;;;27.40;98.40;;;;;;5074828;28;20024;-84
2023/09/10 11:05:54;;;;;;;9.98;6.85;;;27.40;98.10;;;;;;5044239;28;20050;-85
2023/09/10 11:08:30;;;;;;;9.45;7.13;;;27.40;98.00;;;;;;5054891;28;20025;-85
2023/09/10 11:10:57;;;;;;;9.20;6.65;;;27.50;97.90;;;;;;5036585;28;20056;-85
2023/09/10 11:13:23;;;;;;;10.13;7.30;;;27.50;98.00;;;;;;5036782;28;20017;-85
2023/09/10 11:16:09;;;;;;;9.88;6.90;;;27.60;98.00;;;;;;5054132;28;20410;-84
2023/09/10 11:18:34;;;;;;;8.02;7.20;;;27.70;98.00;;;;;;5075094;28;20017;-85
2023/09/10 11:21:01;;;;;;;12.40;6.30;;;27.70;98.10;;;;;;5068592;28;20043;-84
2023/09/10 11:23:27;;;;;;;8.02;6.82;;;27.80;98.00;;;;;;5004525;28;20056;-84
2023/09/10 11:25:53;;;;;;;8.45;6.20;;;27.80;97.90;;;;;;5032062;28;20405;-85
2023/09/10 11:28:44;;;;;;;7.45;6.00;;;27.90;97.80;;;;;;5053476;28;20028;-85
2023/09/10 11:31:38;;;;;;;7.00;5.90;;;27.90;97.70;;;;;;5037371;28;20017;-85
2023/09/10 11:34:16;;;;;;;7.25;6.25;;;27.90;97.70;;;;;;5054925;28;20017;-85
2023/09/10 11:36:45;;;;;;;7.93;5.82;;;28.00;97.70;;;;;;5054651;28;20037;-85
2023/09/10 11:39:13;;;;;;;8.25;6.60;;;28.00;97.70;;;;;;5051673;28;20013;-85
2023/09/10 11:41:39;;;;;;;6.25;5.55;;;28.00;97.60;;;;;;5038552;28;20106;-85
2023/09/10 11:44:04;;;;;;;7.60;6.00;;;28.10;97.70;;;;;;5039211;28;20028;-84
2023/09/10 11:46:30;;;;;;;6.85;6.18;;;28.10;97.50;;;;;;5061522;28;20021;-85
2023/09/10 11:48:58;;;;;;;7.35;6.55;;;28.20;97.50;;;;;;5063359;28;20013;-84
2023/09/10 11:51:23;;;;;;;7.78;5.68;;;28.20;97.40;;;;;;5047390;28;20033;-83
2023/09/10 11:53:49;;;;;;;6.32;5.38;;;28.20;97.30;;;;;;5055962;28;20047;-85
2023/09/10 11:56:15;;;;;;;8.15;5.55;;;28.30;97.30;;;;;;5049966;28;20029;-85
2023/09/10 11:58:41;;;;;;;8.23;5.68;;;28.30;97.20;;;;;;5058458;28;20094;-85
2023/09/10 12:01:06;;;;;;;6.85;5.15;;;28.30;97.20;;;;;;5055667;28;20028;-84
2023/09/10 12:03:32;;;;;;;7.22;5.60;;;28.40;97.20;;;;;;5056294;28;20027;-84
2023/09/10 12:05:58;;;;;;;6.00;5.40;;;28.40;97.20;;;;;;5056198;28;20403;-85
2023/09/10 12:08:24;;;;;;;6.38;5.68;;;28.50;97.10;;;;;;5039286;28;20028;-85
2023/09/10 12:10:52;;;;;;;7.00;5.10;;;28.50;96.90;;;;;;5039302;28;20074;-85
2023/09/10 12:13:19;;;;;;;7.75;5.28;;;28.50;96.80;;;;;;5071120;28;20047;-85
2023/09/10 12:15:45;;;;;;;6.85;5.20;;;28.60;96.90;;;;;;5003891;28;20029;-85
2023/09/10 12:18:11;;;;;;;8.27;5.35;;;28.60;96.90;;;;;;5018790;28;20119;-85
2023/09/10 12:20:37;;;;;;;6.20;5.30;;;28.60;96.90;;;;;;5019826;28;20441;-85
2023/09/10 12:23:04;;;;;;;5.38;4.85;;;28.60;97.00;;;;;;5053786;28;20083;-85
2023/09/10 12:25:30;;;;;;;5.63;4.90;;;28.60;96.90;;;;;;5026200;28;20024;-84
2023/09/10 12:27:56;;;;;;;7.93;5.20;;;28.70;96.90;;;;;;5055720;28;20017;-85
2023/09/10 12:30:23;;;;;;;7.63;5.10;;;28.70;96.80;;;;;;5072975;28;20025;-85
2023/09/10 12:32:50;;;;;;;8.65;5.10;;;28.80;96.70;;;;;;5067585;28;20087;-85